Briefing drone pour Brazey-en-plaine

Rechercher une autre localisation

Conditions de vol :


Nous sommes le : Mercredi 29 novembre 2023
Il est 19:42 UTC (20:42 LT)

Lever de soleil : 06:35 UTC (07:35 LT)
Coucher de soleil : 16:18 UTC (17:18 LT)

Météo

L'essentiel des conditions de vol

VIGILANCE MÉTÉO FRANCE - Côte-dOr (21)
Pas de vigilances particulieres
METAR de LFSD
LFSD 291930Z AUTO 35001KT 8000 NSC 01/00 Q1004

Date d'émission: 29/11/2023
Heure d'émission: 19:30 UTC
Vent: 350° pour 1 KT (2 km/h)
Visibilité horizontale: 8000 m
Plafond : Pas de nuages significatifs (NSC)
Température: 1 °C
Point de rosée: 0 °C
Humidité: 93%
Pression (QNH): 1004 hPa
TAF de LFSD
LFSD 010600Z 0100/0124 CNL

Conditions prévues :

Heure d'émission : Bulletin éffectué le 01 à 00:00 UTC
Prévision : Valide du 01 a 00:00 UTC au 01 a 23:59 UTC
Nuages : à 0ft (0 m)
WEBCAM POUR BRAZEY-EN-PLAINE

Réglementation

Voler en sécurité

CARTES AERONAUTIQUE 1/500.000
CARTE AZBA (Reseau basse altitude)
CARTES VAC (LFSD)
SUP AIP




Chargement des AIP...
NOTAM (BRAZEY-EN-PLAINE + Terrain à proximité / FIR )




Chargement des NOTAMS...
CONTACT PREFECTURE 21
Côte-dOr (21) : [email protected]


Avertissement : Les données mises à disposition sont indicatives. Oxygène Drone ne pourra être tenu responsable de dégâts causés aux biens et aux personnes.